EWG3GH EDDL-EDDL
Flight info
| Callsign | EWG3GH |
|---|---|
| Flight time | 0h 14m |
| Altitude | |
| Route | |
| Aircraft | A20N |
Departure
| Time | 2026-04-30 19:56 |
|---|---|
| Airport | Düsseldorf Airport (EDDL) |
Arrival
| Time | 2026-04-30 20:10 |
|---|---|
| Airport | Düsseldorf Airport (EDDL) |
| Time | Latitude | Longitude | Altitude | Speed | Heading |
|---|---|---|---|---|---|
| 2026-04-30 19:34 | 51.28011 | 6.76416 | 137 ft | 0 kts | 208° |
| 2026-04-30 19:41 | 51.28024 | 6.76427 | 137 ft | 3 kts | 205° |
| 2026-04-30 19:42 | 51.28043 | 6.76438 | 137 ft | 3 kts | 190° |
| 2026-04-30 19:42 | 51.28063 | 6.76438 | 137 ft | 3 kts | 161° |
| 2026-04-30 19:42 | 51.28081 | 6.76424 | 137 ft | 3 kts | 149° |
| 2026-04-30 19:42 | 51.28097 | 6.76407 | 137 ft | 3 kts | 146° |
| 2026-04-30 19:43 | 51.28113 | 6.76389 | 137 ft | 3 kts | 139° |
| 2026-04-30 19:43 | 51.28128 | 6.76366 | 137 ft | 3 kts | 117° |
| 2026-04-30 19:43 | 51.28136 | 6.76337 | 137 ft | 3 kts | 115° |
| 2026-04-30 19:44 | 51.28150 | 6.76279 | 137 ft | 3 kts | 86° |
| 2026-04-30 19:44 | 51.28145 | 6.76248 | 137 ft | 3 kts | 57° |
| 2026-04-30 19:44 | 51.28134 | 6.76223 | 137 ft | 1 kts | 53° |
| 2026-04-30 19:47 | 51.28147 | 6.76247 | 137 ft | 7 kts | 44° |
| 2026-04-30 19:47 | 51.28202 | 6.76219 | 137 ft | 13 kts | 295° |
| 2026-04-30 19:48 | 51.28159 | 6.76084 | 136 ft | 17 kts | 233° |
| 2026-04-30 19:48 | 51.28137 | 6.76036 | 137 ft | 4 kts | 233° |
| 2026-04-30 19:48 | 51.28104 | 6.75967 | 137 ft | 11 kts | 233° |
| 2026-04-30 19:48 | 51.28045 | 6.75843 | 136 ft | 16 kts | 232° |
| 2026-04-30 19:49 | 51.27969 | 6.75685 | 136 ft | 17 kts | 232° |
| 2026-04-30 19:49 | 51.27841 | 6.75403 | 136 ft | 12 kts | 265° |
| 2026-04-30 19:49 | 51.27876 | 6.75321 | 135 ft | 7 kts | 335° |
| 2026-04-30 19:50 | 51.27889 | 6.75312 | 135 ft | 0 kts | 335° |
| 2026-04-30 19:54 | 51.27909 | 6.75296 | 133 ft | 9 kts | 334° |
| 2026-04-30 19:54 | 51.27999 | 6.75296 | 126 ft | 17 kts | 33° |
| 2026-04-30 19:54 | 51.28031 | 6.75352 | 126 ft | 0 kts | 53° |
| 2026-04-30 19:55 | 51.28041 | 6.75374 | 128 ft | 7 kts | 53° |
| 2026-04-30 19:55 | 51.28192 | 6.75690 | 133 ft | 76 kts | 53° |
| 2026-04-30 19:55 | 51.28665 | 6.76675 | 160 ft | 143 kts | 52° |
| 2026-04-30 19:56 | 51.29296 | 6.77942 | 827 ft | 147 kts | 54° |
| 2026-04-30 19:56 | 51.29955 | 6.79261 | 1367 ft | 152 kts | 58° |
| 2026-04-30 19:56 | 51.30813 | 6.80465 | 1668 ft | 178 kts | 34° |
| 2026-04-30 19:56 | 51.32064 | 6.80802 | 1703 ft | 196 kts | 359° |
| 2026-04-30 19:57 | 51.33273 | 6.79984 | 1625 ft | 205 kts | 324° |
| 2026-04-30 19:57 | 51.34075 | 6.78113 | 1570 ft | 207 kts | 286° |
| 2026-04-30 19:57 | 51.34120 | 6.75978 | 1573 ft | 202 kts | 251° |
| 2026-04-30 19:57 | 51.33469 | 6.74036 | 1585 ft | 194 kts | 226° |
| 2026-04-30 19:58 | 51.32657 | 6.72328 | 1618 ft | 193 kts | 226° |
| 2026-04-30 19:58 | 51.31856 | 6.70679 | 1631 ft | 193 kts | 225° |
| 2026-04-30 19:58 | 51.31038 | 6.68957 | 1651 ft | 198 kts | 227° |
| 2026-04-30 19:58 | 51.30216 | 6.67189 | 1657 ft | 198 kts | 228° |
| 2026-04-30 19:59 | 51.29398 | 6.65430 | 1646 ft | 196 kts | 226° |
| 2026-04-30 19:59 | 51.28582 | 6.63702 | 1647 ft | 195 kts | 226° |
| 2026-04-30 19:59 | 51.26898 | 6.60267 | 1606 ft | 198 kts | 225° |
| 2026-04-30 20:00 | 51.26034 | 6.58640 | 1617 ft | 188 kts | 217° |
| 2026-04-30 20:00 | 51.24942 | 6.57527 | 1629 ft | 184 kts | 192° |
| 2026-04-30 20:00 | 51.23732 | 6.57377 | 1647 ft | 167 kts | 161° |
| 2026-04-30 20:00 | 51.22832 | 6.58166 | 1578 ft | 133 kts | 124° |
| 2026-04-30 20:01 | 51.22919 | 6.61039 | 1379 ft | 144 kts | 77° |
| 2026-04-30 20:01 | 51.23215 | 6.62590 | 1383 ft | 148 kts | 77° |
| 2026-04-30 20:01 | 51.23527 | 6.64158 | 1362 ft | 146 kts | 76° |
| 2026-04-30 20:02 | 51.24260 | 6.67080 | 1289 ft | 136 kts | 66° |
| 2026-04-30 20:02 | 51.24760 | 6.68264 | 1154 ft | 122 kts | 62° |
| 2026-04-30 20:03 | 51.25715 | 6.70437 | 960 ft | 124 kts | 58° |
| 2026-04-30 20:03 | 51.26218 | 6.71500 | 832 ft | 118 kts | 59° |
| 2026-04-30 20:03 | 51.26696 | 6.72554 | 707 ft | 118 kts | 57° |
| 2026-04-30 20:03 | 51.27211 | 6.73626 | 522 ft | 123 kts | 55° |
| 2026-04-30 20:04 | 51.27702 | 6.74672 | 347 ft | 118 kts | 53° |
| 2026-04-30 20:04 | 51.28212 | 6.75724 | 160 ft | 120 kts | 55° |
| 2026-04-30 20:04 | 51.28677 | 6.76702 | 135 ft | 100 kts | 53° |
| 2026-04-30 20:05 | 51.29854 | 6.79151 | 1138 ft | 173 kts | 56° |
| 2026-04-30 20:05 | 51.30595 | 6.80675 | 1702 ft | 173 kts | 62° |
| 2026-04-30 20:05 | 51.30485 | 6.83991 | 1670 ft | 160 kts | 134° |
| 2026-04-30 20:06 | 51.29442 | 6.84644 | 1616 ft | 172 kts | 173° |
| 2026-04-30 20:06 | 51.28296 | 6.83940 | 1596 ft | 189 kts | 214° |
| 2026-04-30 20:06 | 51.27508 | 6.82187 | 1616 ft | 197 kts | 231° |
| 2026-04-30 20:06 | 51.26719 | 6.80445 | 1600 ft | 190 kts | 226° |
| 2026-04-30 20:07 | 51.26190 | 6.79319 | 1590 ft | 193 kts | 226° |
| 2026-04-30 20:07 | 51.25382 | 6.77610 | 1605 ft | 193 kts | 227° |
| 2026-04-30 20:07 | 51.23646 | 6.73418 | 1586 ft | 197 kts | 253° |
| 2026-04-30 20:08 | 51.23610 | 6.72003 | 1501 ft | 190 kts | 277° |
| 2026-04-30 20:08 | 51.24191 | 6.70241 | 1380 ft | 181 kts | 321° |
| 2026-04-30 20:08 | 51.25274 | 6.69592 | 1218 ft | 156 kts | 14° |
| 2026-04-30 20:08 | 51.26017 | 6.70425 | 994 ft | 122 kts | 69° |
| 2026-04-30 20:09 | 51.26372 | 6.71623 | 785 ft | 119 kts | 66° |
| 2026-04-30 20:09 | 51.26812 | 6.72781 | 606 ft | 123 kts | 59° |
| 2026-04-30 20:09 | 51.27830 | 6.74924 | 272 ft | 119 kts | 55° |
| 2026-04-30 20:10 | 51.28769 | 6.76898 | 135 ft | 78 kts | 52° |
| 2026-04-30 20:10 | 51.28988 | 6.77355 | 132 ft | 24 kts | 51° |
| 2026-04-30 20:10 | 51.29017 | 6.77541 | 134 ft | 13 kts | 113° |
| 2026-04-30 20:11 | 51.28967 | 6.77614 | 136 ft | 0 kts | 142° |
| 2026-04-30 20:11 | 51.28964 | 6.77617 | 136 ft | 2 kts | 142° |
| 2026-04-30 20:11 | 51.28934 | 6.77646 | 136 ft | 7 kts | 169° |